Time;durP1;ratioP1;P1;durP2;ratioP2;P2;SDS_P1;SDS_P2;PMS_P1;PMS_P2;Temp;Humidity;BMP_temperature;BMP_pressure;BME280_temperature;BME280_humidity;BME280_pressure;Samples;Min_cycle;Max_cycle;Signal;HPM_P1;HPM_P2
2021/09/07 00:00:16;;;;;;;10.70;7.10;;;;;;;18.35;46.17;99318.44;5100300;28;20486;-92
2021/09/07 00:02:42;;;;;;;9.73;7.18;;;;;;;18.41;45.65;99307.31;5104767;28;20040;-96
2021/09/07 00:05:10;;;;;;;8.00;5.72;;;;;;;18.39;45.96;99303.84;5108804;28;20036;-94
2021/09/07 00:07:36;;;;;;;15.52;7.03;;;;;;;18.35;46.16;99299.59;5100473;28;20140;-95
2021/09/07 00:10:03;;;;;;;9.38;6.32;;;;;;;18.31;46.17;99296.16;5101731;28;20032;-95
2021/09/07 00:12:32;;;;;;;9.68;6.25;;;;;;;18.28;45.44;99277.44;5108581;28;20044;-94
2021/09/07 00:14:58;;;;;;;11.55;7.00;;;;;;;18.31;45.38;99273.75;5109095;28;20104;-95
2021/09/07 00:17:24;;;;;;;9.77;5.82;;;;;;;18.42;45.52;99276.78;5102343;28;20048;-94
2021/09/07 00:19:50;;;;;;;8.55;6.22;;;;;;;18.62;45.18;99308.94;5104191;28;20094;-93
2021/09/07 00:22:16;;;;;;;8.57;5.93;;;;;;;18.55;45.43;99299.44;5098958;28;20126;-95
2021/09/07 00:24:44;;;;;;;11.00;6.75;;;;;;;18.49;45.78;99291.66;5102740;28;20062;-94
2021/09/07 00:27:10;;;;;;;12.00;7.67;;;;;;;18.52;46.08;99304.09;5101137;28;20040;-92
2021/09/07 00:29:37;;;;;;;13.20;6.82;;;;;;;18.42;46.89;99296.47;5110002;28;20047;-93
2021/09/07 00:32:06;;;;;;;10.40;6.47;;;;;;;18.29;47.19;99267.59;5102347;28;20044;-96
2021/09/07 00:34:35;;;;;;;;;;;;;;;18.51;47.23;99305.06;5107927;28;20066;-93
2021/09/07 00:37:01;;;;;;;10.50;6.28;;;;;;;18.31;47.10;99273.75;5101303;28;19920;-95
2021/09/07 00:39:27;;;;;;;8.85;5.97;;;;;;;18.58;47.06;99303.78;5098155;28;20044;-95
2021/09/07 00:41:53;;;;;;;10.20;6.45;;;;;;;18.49;46.99;99272.81;5097516;28;20040;-94
2021/09/07 00:44:26;;;;;;;10.68;6.90;;;;;;;18.39;47.31;99266.13;5098100;28;20044;-94
2021/09/07 00:46:56;;;;;;;12.57;7.32;;;;;;;18.57;47.26;99297.53;5088382;28;20046;-95
2021/09/07 00:49:27;;;;;;;10.82;6.78;;;;;;;18.46;47.33;99273.84;5096348;28;20511;-95
2021/09/07 00:51:57;;;;;;;11.00;7.20;;;;;;;18.37;47.77;99273.44;5096596;28;20126;-94
2021/09/07 00:54:29;;;;;;;12.52;7.13;;;;;;;18.59;48.01;99306.41;5097119;28;20052;-95
2021/09/07 00:56:55;;;;;;;12.88;6.78;;;;;;;18.60;48.17;99316.22;5096653;28;20070;-94
2021/09/07 00:59:22;;;;;;;10.68;6.38;;;;;;;18.36;48.59;99279.78;5097335;28;20485;-94
2021/09/07 01:01:50;;;;;;;12.50;7.30;;;;;;;18.36;48.59;99298.63;5098188;28;20555;-94
2021/09/07 01:04:17;;;;;;;11.43;6.85;;;;;;;18.42;48.85;99292.94;5095711;28;20043;-94
2021/09/07 01:06:47;;;;;;;9.52;6.97;;;;;;;18.51;48.98;99307.75;5097943;28;20060;-94
2021/09/07 01:09:13;;;;;;;11.82;6.90;;;;;;;18.41;48.70;99286.69;5096606;28;20134;-93
2021/09/07 01:11:40;;;;;;;10.77;6.80;;;;;;;18.26;49.10;99279.38;5098171;28;20047;-94
2021/09/07 01:14:06;;;;;;;10.57;7.38;;;;;;;18.38;49.27;99304.81;5097950;28;20436;-93
2021/09/07 01:16:35;;;;;;;10.88;6.68;;;;;;;18.21;50.07;99292.19;5096833;28;20032;-94
2021/09/07 01:19:05;;;;;;;11.80;7.40;;;;;;;18.12;50.08;99301.59;5098102;28;20413;-91
2021/09/07 01:21:33;;;;;;;10.98;6.72;;;;;;;17.99;50.38;99268.16;5097157;28;20044;-93
2021/09/07 01:23:59;;;;;;;11.52;7.00;;;;;;;18.17;50.69;99298.66;5087829;28;20089;-95
2021/09/07 01:26:26;;;;;;;11.13;7.32;;;;;;;18.14;50.76;99299.69;5092101;28;20044;-92
2021/09/07 01:28:52;;;;;;;10.52;7.10;;;;;;;18.05;50.55;99287.56;5096653;28;20044;-94
2021/09/07 01:31:21;;;;;;;16.02;7.45;;;;;;;18.05;50.71;99284.00;5097436;28;20119;-94
2021/09/07 01:33:48;;;;;;;12.10;7.38;;;;;;;18.15;51.00;99295.16;5097635;28;20532;-94
2021/09/07 01:36:15;;;;;;;10.07;7.20;;;;;;;18.19;51.09;99297.63;5098399;28;20044;-95
2021/09/07 01:38:41;;;;;;;11.02;7.55;;;;;;;18.11;51.17;99289.09;5101299;28;20044;-94
2021/09/07 01:41:07;;;;;;;12.48;7.60;;;;;;;17.97;51.27;99261.97;5118204;28;20119;-92
2021/09/07 01:43:35;;;;;;;11.25;7.78;;;;;;;18.04;51.35;99258.03;5117817;28;20067;-94
2021/09/07 01:46:03;;;;;;;11.45;7.80;;;;;;;18.16;51.88;99286.16;5115440;28;20417;-93
2021/09/07 01:48:31;;;;;;;12.43;7.57;;;;;;;18.02;52.04;99268.88;5115726;28;20035;-95
2021/09/07 01:51:00;;;;;;;11.85;7.45;;;;;;;17.95;52.32;99256.66;5117578;28;20039;-93
2021/09/07 01:53:26;;;;;;;12.75;7.72;;;;;;;18.16;52.29;99287.03;5111916;28;20073;-94
2021/09/07 01:55:52;;;;;;;12.13;7.47;;;;;;;18.14;52.62;99286.22;5117472;28;20122;-94
2021/09/07 01:58:18;;;;;;;11.77;7.15;;;;;;;18.17;52.54;99283.41;5118322;28;20074;-94
2021/09/07 02:00:45;;;;;;;12.13;7.82;;;;;;;18.19;52.57;99294.94;5118952;28;20084;-96
2021/09/07 02:03:14;;;;;;;12.18;7.68;;;;;;;17.95;53.14;99267.44;5121690;28;20498;-95
2021/09/07 02:05:40;;;;;;;10.45;7.57;;;;;;;17.92;52.99;99264.91;5121786;28;20043;-91
2021/09/07 02:08:06;;;;;;;11.40;7.30;;;;;;;17.90;53.62;99274.88;5119291;28;20046;-94
2021/09/07 02:10:32;;;;;;;11.48;7.57;;;;;;;17.90;53.66;99279.38;5121700;28;20044;-93
2021/09/07 02:13:00;;;;;;;11.35;7.63;;;;;;;17.73;53.72;99246.06;5121845;28;20101;-95
2021/09/07 02:15:26;;;;;;;12.55;7.45;;;;;;;17.80;54.13;99273.53;5121727;28;20039;-93
2021/09/07 02:17:53;;;;;;;9.98;7.10;;;;;;;17.72;54.37;99262.25;5121117;28;20122;-94
2021/09/07 02:20:19;;;;;;;11.55;7.22;;;;;;;17.73;54.50;99267.56;5122861;28;20043;-92
2021/09/07 02:22:45;;;;;;;12.80;7.70;;;;;;;17.76;54.39;99266.56;5120144;28;20032;-94
2021/09/07 02:25:12;;;;;;;12.63;8.00;;;;;;;17.74;54.49;99263.97;5122119;28;20058;-93
2021/09/07 02:27:38;;;;;;;10.90;7.18;;;;;;;17.78;54.63;99275.41;5121321;28;20039;-94
2021/09/07 02:30:05;;;;;;;12.45;7.80;;;;;;;17.49;55.56;99247.25;5123041;28;20049;-95
2021/09/07 02:32:31;;;;;;;11.63;7.47;;;;;;;17.57;55.30;99256.69;5121323;28;20485;-95
2021/09/07 02:35:02;;;;;;;11.40;7.57;;;;;;;17.44;55.28;99232.22;5118412;28;20039;-95
2021/09/07 02:37:28;;;;;;;10.18;7.40;;;;;;;17.34;56.16;99236.28;5123086;28;20109;-94
2021/09/07 02:39:57;;;;;;;15.18;8.00;;;;;;;17.38;56.17;99243.25;5122540;28;20043;-95
2021/09/07 02:42:23;;;;;;;11.82;8.25;;;;;;;17.20;56.57;99228.00;5115036;28;20039;-95
2021/09/07 02:44:49;;;;;;;11.75;8.07;;;;;;;17.29;56.65;99235.63;5120660;28;20039;-94
2021/09/07 02:47:16;;;;;;;12.95;7.90;;;;;;;17.32;56.34;99227.41;5119682;28;20097;-94
2021/09/07 02:49:43;;;;;;;12.23;7.70;;;;;;;17.32;56.50;99226.53;5122484;28;20031;-95
2021/09/07 02:52:13;;;;;;;12.48;8.40;;;;;;;17.33;56.19;99218.41;5119311;28;20126;-93
2021/09/07 02:54:39;;;;;;;14.43;8.27;;;;;;;17.42;56.41;99247.53;5121841;28;20054;-94
2021/09/07 02:57:05;;;;;;;15.52;7.82;;;;;;;17.24;57.17;99230.47;5122985;28;20055;-94
2021/09/07 02:59:31;;;;;;;14.57;8.52;;;;;;;17.30;57.19;99253.47;5123375;28;20084;-93
2021/09/07 03:01:57;;;;;;;12.60;8.13;;;;;;;17.33;57.57;99250.66;5119198;28;20036;-94
2021/09/07 03:04:23;;;;;;;12.60;7.88;;;;;;;17.29;57.39;99235.63;5120854;28;20131;-94
2021/09/07 03:06:50;;;;;;;13.73;7.97;;;;;;;17.38;57.37;99251.31;5120829;28;20135;-94
2021/09/07 03:09:18;;;;;;;15.57;8.60;;;;;;;17.27;57.39;99232.13;5121429;28;20412;-94
2021/09/07 03:11:44;;;;;;;12.17;7.97;;;;;;;17.28;57.67;99241.94;5119657;28;20031;-94
2021/09/07 03:14:10;;;;;;;13.52;8.40;;;;;;;17.30;57.58;99240.03;5117106;28;20519;-94
2021/09/07 03:16:39;;;;;;;12.05;7.43;;;;;;;17.30;57.73;99229.28;5119627;28;20472;-94
2021/09/07 03:19:05;;;;;;;12.20;7.88;;;;;;;17.38;57.78;99240.56;5120123;28;20575;-96
2021/09/07 03:21:31;;;;;;;12.25;7.47;;;;;;;17.24;57.77;99211.66;5121593;28;20374;-92
2021/09/07 03:23:58;;;;;;;12.38;7.70;;;;;;;17.17;58.05;99209.31;5121592;28;20043;-95
2021/09/07 03:26:25;;;;;;;14.60;7.85;;;;;;;17.25;58.04;99223.28;5119693;28;20129;-94
2021/09/07 03:28:54;;;;;;;12.73;8.18;;;;;;;17.25;58.11;99231.34;5117664;28;20488;-95
2021/09/07 03:31:20;;;;;;;11.52;7.30;;;;;;;17.37;58.11;99238.84;5118749;28;20080;-94
2021/09/07 03:33:46;;;;;;;14.20;8.23;;;;;;;17.27;58.48;99231.28;5113902;28;20055;-93
2021/09/07 03:36:12;;;;;;;13.52;7.78;;;;;;;17.31;58.36;99230.19;5119677;28;20036;-94
2021/09/07 03:38:39;;;;;;;12.88;7.70;;;;;;;17.20;58.64;99219.94;5121466;28;20056;-94
2021/09/07 03:41:04;;;;;;;12.00;7.65;;;;;;;17.24;58.98;99235.84;5121365;28;20035;-94
2021/09/07 03:43:33;;;;;;;11.82;7.90;;;;;;;17.13;58.55;99200.53;5120690;28;20062;-94
2021/09/07 03:46:00;;;;;;;13.02;8.05;;;;;;;17.11;58.32;99196.16;5119926;27;20035;-93
2021/09/07 03:48:30;;;;;;;13.47;8.13;;;;;;;17.17;58.59;99217.38;5126950;28;20050;-93
2021/09/07 03:50:59;;;;;;;;;;;;;;;17.29;58.67;99241.00;5124559;28;20035;-93
2021/09/07 03:53:29;;;;;;;11.77;7.55;;;;;;;17.23;58.63;99236.78;5124903;28;19923;-95
2021/09/07 03:55:57;;;;;;;12.15;7.95;;;;;;;17.04;58.85;99207.22;5121938;28;20040;-94
2021/09/07 03:58:23;;;;;;;14.35;8.05;;;;;;;17.13;59.05;99213.97;5121946;28;20592;-94
2021/09/07 04:00:52;;;;;;;12.25;7.95;;;;;;;16.98;59.27;99215.56;5121858;28;20032;-94
2021/09/07 04:03:19;;;;;;;12.40;8.40;;;;;;;16.84;59.72;99204.56;5124086;28;20043;-94
2021/09/07 04:05:46;;;;;;;12.02;7.30;;;;;;;16.72;60.11;99210.44;5121993;28;20461;-94
2021/09/07 04:08:15;;;;;;;12.27;7.40;;;;;;;16.94;59.73;99245.34;5122713;28;20404;-93
2021/09/07 04:10:41;;;;;;;11.60;7.45;;;;;;;16.76;60.45;99230.88;5122733;28;20055;-94
2021/09/07 04:13:07;;;;;;;11.07;7.05;;;;;;;16.82;60.38;99246.75;5123344;28;20472;-94
2021/09/07 04:15:36;;;;;;;11.07;7.78;;;;;;;16.61;60.39;99209.16;5123365;28;20085;-95
2021/09/07 04:18:03;;;;;;;12.52;7.38;;;;;;;16.67;60.30;99221.41;5121280;28;20505;-93
2021/09/07 04:20:29;;;;;;;12.93;7.68;;;;;;;16.55;60.88;99213.91;5120568;28;20043;-95
2021/09/07 04:22:55;;;;;;;14.93;9.18;;;;;;;16.49;61.28;99241.03;5118417;28;20038;-95
2021/09/07 04:25:22;;;;;;;13.23;9.27;;;;;;;16.11;61.96;99220.28;5122930;28;20054;-93
2021/09/07 04:27:50;;;;;;;15.45;10.30;;;;;;;15.94;62.82;99220.97;5126465;28;20130;-95
2021/09/07 04:30:17;;;;;;;14.38;9.18;;;;;;;15.82;63.33;99219.66;5124558;28;20096;-94
2021/09/07 04:32:44;;;;;;;17.63;9.05;;;;;;;15.73;64.55;99244.19;5126615;28;20039;-95
2021/09/07 04:35:11;;;;;;;16.40;9.32;;;;;;;15.53;64.97;99236.91;5127202;28;20039;-93
2021/09/07 04:37:40;;;;;;;15.30;9.40;;;;;;;15.52;65.28;99253.91;5125338;28;20508;-95
2021/09/07 04:40:07;;;;;;;14.15;9.30;;;;;;;15.20;66.28;99234.63;5122953;28;20046;-93
2021/09/07 04:42:34;;;;;;;14.52;8.85;;;;;;;15.25;66.52;99263.91;5123726;28;20106;-94
2021/09/07 04:45:01;;;;;;;14.68;8.40;;;;;;;15.20;66.52;99265.88;5122522;28;20050;-94
2021/09/07 04:47:27;;;;;;;14.43;9.00;;;;;;;15.10;67.19;99259.16;5122317;28;20047;-95
2021/09/07 04:49:53;;;;;;;13.88;8.25;;;;;;;14.95;67.50;99239.16;5121997;28;20048;-93
2021/09/07 04:52:24;;;;;;;14.15;8.60;;;;;;;14.95;67.43;99242.72;5121952;28;20134;-94
2021/09/07 04:54:51;;;;;;;12.98;8.05;;;;;;;15.21;67.07;99264.97;5122039;28;20497;-94
2021/09/07 04:57:17;;;;;;;17.42;8.50;;;;;;;15.07;67.13;99238.72;5121271;28;20044;-94
2021/09/07 04:59:43;;;;;;;14.63;8.88;;;;;;;15.19;66.87;99248.94;5121091;28;20046;-94
2021/09/07 05:02:09;;;;;;;14.52;8.63;;;;;;;15.28;66.92;99250.38;5120369;28;20044;-94
2021/09/07 05:04:38;;;;;;;14.02;8.73;;;;;;;15.13;66.74;99226.88;5120567;28;20043;-94
2021/09/07 05:07:04;;;;;;;13.93;8.27;;;;;;;15.24;66.79;99239.84;5109475;28;20051;-94
2021/09/07 05:09:32;;;;;;;14.20;8.57;;;;;;;15.23;66.94;99232.75;5119590;28;20036;-92
2021/09/07 05:12:01;;;;;;;16.23;8.60;;;;;;;15.28;66.77;99238.81;5120776;28;20036;-95
2021/09/07 05:14:27;;;;;;;;;;;;;;;15.55;66.57;99271.72;5121517;28;20131;-93
2021/09/07 05:16:56;;;;;;;15.23;9.02;;;;;;;15.31;66.44;99231.53;5123271;28;19923;-93
2021/09/07 05:19:23;;;;;;;15.55;9.02;;;;;;;15.64;65.32;99259.75;5122062;28;20043;-95
2021/09/07 05:21:49;;;;;;;11.68;8.00;;;;;;;15.65;65.47;99232.00;5123146;28;20050;-92
2021/09/07 05:24:16;;;;;;;15.93;8.88;;;;;;;15.67;65.63;99235.47;5121818;28;20040;-94
2021/09/07 05:26:45;;;;;;;13.80;8.77;;;;;;;15.73;65.78;99244.19;5122719;28;20062;-95
2021/09/07 05:29:11;;;;;;;13.75;8.63;;;;;;;15.86;65.46;99255.28;5121853;28;20092;-95
2021/09/07 05:31:37;;;;;;;14.57;8.98;;;;;;;15.95;65.14;99267.44;5119287;28;20040;-95
2021/09/07 05:34:08;;;;;;;12.20;8.18;;;;;;;15.94;64.55;99246.91;5120441;28;20036;-94
2021/09/07 05:36:37;;;;;;;13.35;9.20;;;;;;;15.98;65.14;99248.53;5120513;28;20039;-94
2021/09/07 05:39:03;;;;;;;11.23;7.95;;;;;;;16.14;64.62;99257.69;5118197;28;20048;-95
2021/09/07 05:41:29;;;;;;;13.43;8.80;;;;;;;16.19;64.23;99258.38;5118302;28;20400;-95
2021/09/07 05:43:56;;;;;;;17.05;8.68;;;;;;;16.30;64.29;99260.59;5115140;28;20496;-94
2021/09/07 05:46:22;;;;;;;16.75;10.13;;;;;;;16.48;64.10;99276.84;5115680;28;20058;-94
2021/09/07 05:48:48;;;;;;;14.63;9.40;;;;;;;16.47;64.04;99261.69;5118156;28;20416;-95
2021/09/07 05:51:16;;;;;;;19.75;9.98;;;;;;;16.50;63.45;99256.19;5116336;28;20031;-92
2021/09/07 05:53:43;;;;;;;22.92;10.18;;;;;;;16.58;63.23;99252.22;5118434;28;20042;-94
2021/09/07 05:56:10;;;;;;;17.77;10.30;;;;;;;16.71;62.96;99249.88;5118763;28;20035;-94
2021/09/07 05:58:36;;;;;;;16.80;9.55;;;;;;;16.80;63.16;99260.22;5117979;28;20039;-95
2021/09/07 06:01:04;;;;;;;15.35;9.80;;;;;;;16.95;63.22;99273.91;5118686;28;20123;-94
2021/09/07 06:03:30;;;;;;;16.05;10.32;;;;;;;17.15;62.98;99289.13;5114978;28;20040;-94
2021/09/07 06:05:56;;;;;;;15.32;8.65;;;;;;;17.24;60.92;99265.41;5116034;28;20070;-94
2021/09/07 06:08:23;;;;;;;14.02;7.57;;;;;;;17.49;58.76;99269.63;5119378;28;20047;-94
2021/09/07 06:10:51;;;;;;;12.95;8.55;;;;;;;17.61;58.61;99262.81;5116990;28;20036;-94
2021/09/07 06:13:17;;;;;;;14.68;7.78;;;;;;;17.89;55.26;99250.72;5117861;28;20050;-93
2021/09/07 06:15:44;;;;;;;15.25;8.32;;;;;;;18.12;55.90;99253.13;5115221;28;20100;-95
2021/09/07 06:18:12;;;;;;;12.68;8.10;;;;;;;18.47;54.26;99275.56;5117228;28;20052;-93
2021/09/07 06:20:37;;;;;;;11.35;7.85;;;;;;;18.62;54.78;99276.59;5119175;28;20032;-95
2021/09/07 06:23:03;;;;;;;12.30;7.63;;;;;;;18.76;54.33;99270.50;5116304;28;20047;-95
2021/09/07 06:25:30;;;;;;;12.40;7.65;;;;;;;18.84;54.40;99262.91;5114907;28;20070;-94
2021/09/07 06:27:57;;;;;;;11.60;7.53;;;;;;;19.08;51.73;99279.63;5115847;28;20046;-94
2021/09/07 06:30:23;;;;;;;12.00;7.43;;;;;;;19.33;50.73;99280.09;5114245;28;20557;-92
2021/09/07 06:32:52;;;;;;;11.20;7.55;;;;;;;19.53;51.22;99284.38;5117447;28;20043;-94
2021/09/07 06:35:20;;;;;;;11.75;7.45;;;;;;;19.68;50.82;99278.13;5118703;28;20036;-93
2021/09/07 06:37:46;;;;;;;11.00;7.07;;;;;;;19.86;50.75;99281.63;5118113;28;20067;-93
2021/09/07 06:40:13;;;;;;;11.52;7.05;;;;;;;20.00;49.28;99264.66;5117031;28;20058;-94
2021/09/07 06:42:39;;;;;;;10.38;7.35;;;;;;;20.19;48.89;99277.94;5115745;28;20035;-93
2021/09/07 06:45:08;;;;;;;10.07;7.22;;;;;;;20.30;48.57;99273.66;5117839;28;20045;-92
2021/09/07 06:47:34;;;;;;;11.57;7.13;;;;;;;20.38;48.44;99269.63;5121251;28;20548;-93
2021/09/07 06:50:01;;;;;;;13.05;7.07;;;;;;;20.45;47.33;99247.59;5119200;28;20034;-95
2021/09/07 06:52:29;;;;;;;12.00;7.70;;;;;;;20.61;45.48;99266.47;5125617;28;20050;-96
2021/09/07 06:54:57;;;;;;;11.88;7.43;;;;;;;20.90;47.67;99261.97;5121113;28;20035;-95
2021/09/07 06:57:26;;;;;;;;;;;;;;;20.87;46.72;99277.53;5122523;28;20043;-95
2021/09/07 06:59:52;;;;;;;10.75;7.43;;;;;;;20.79;47.00;99274.41;5121883;28;19935;-93
2021/09/07 07:02:19;;;;;;;9.98;6.88;;;;;;;20.81;46.60;99243.63;5117602;28;20062;-95
2021/09/07 07:04:45;;;;;;;11.38;7.38;;;;;;;20.49;46.57;99251.84;5122753;28;20044;-95
2021/09/07 07:07:12;;;;;;;11.68;7.45;;;;;;;20.69;46.30;99257.91;5122853;28;20039;-96
2021/09/07 07:09:39;;;;;;;12.60;7.38;;;;;;;20.81;47.07;99249.03;5121339;28;20036;-94
2021/09/07 07:12:06;;;;;;;11.52;7.57;;;;;;;20.86;46.76;99275.78;5122621;28;20100;-95
2021/09/07 07:14:32;;;;;;;11.82;7.80;;;;;;;20.99;47.61;99275.88;5124073;28;20051;-94
2021/09/07 07:16:58;;;;;;;11.18;7.32;;;;;;;20.81;46.18;99253.56;5122586;28;20043;-95
2021/09/07 07:19:25;;;;;;;11.55;7.93;;;;;;;20.98;45.54;99252.53;5119387;28;20504;-96
2021/09/07 07:21:51;;;;;;;14.68;8.02;;;;;;;21.06;44.53;99237.56;5122204;28;20484;-93
2021/09/07 07:24:18;;;;;;;10.07;7.20;;;;;;;21.08;45.80;99251.88;5122161;28;20044;-95
2021/09/07 07:26:45;;;;;;;12.38;7.45;;;;;;;21.42;45.32;99257.84;5123801;28;20059;-94
2021/09/07 07:29:12;;;;;;;12.73;7.47;;;;;;;21.42;44.71;99257.00;5122495;28;20515;-95
2021/09/07 07:31:38;;;;;;;11.65;7.70;;;;;;;21.65;44.60;99278.03;5117715;28;20050;-93
2021/09/07 07:34:07;;;;;;;11.25;7.38;;;;;;;21.78;42.99;99277.25;5119626;28;20545;-94
2021/09/07 07:36:36;;;;;;;10.32;7.00;;;;;;;21.58;43.96;99259.56;5119295;27;20035;-94
2021/09/07 07:39:04;;;;;;;13.45;7.97;;;;;;;21.90;43.30;99279.13;5117225;28;20059;-95
2021/09/07 07:41:30;;;;;;;14.05;9.20;;;;;;;21.87;42.52;99271.22;5119886;28;20058;-96
2021/09/07 07:43:58;;;;;;;11.45;7.43;;;;;;;21.91;42.90;99251.97;5120389;27;20039;-95
2021/09/07 07:46:24;;;;;;;11.18;7.22;;;;;;;22.29;40.71;99280.22;5120262;28;20067;-94
2021/09/07 07:48:50;;;;;;;12.07;7.30;;;;;;;22.30;41.67;99271.97;5115940;28;20039;-94
2021/09/07 07:51:17;;;;;;;11.52;7.18;;;;;;;22.45;41.56;99269.22;5121131;28;20075;-93
2021/09/07 07:53:43;;;;;;;11.93;7.53;;;;;;;22.34;42.33;99268.09;5119109;28;20035;-93
2021/09/07 07:56:11;;;;;;;10.07;6.75;;;;;;;22.31;41.53;99268.28;5119609;28;20156;-94
2021/09/07 07:58:37;;;;;;;12.25;7.55;;;;;;;21.97;42.21;99238.97;5119355;28;20062;-93
2021/09/07 08:01:04;;;;;;;10.80;7.40;;;;;;;22.20;40.75;99270.81;5120432;28;20035;-93
2021/09/07 08:03:31;;;;;;;11.60;7.25;;;;;;;21.91;41.77;99260.09;5116544;28;20070;-94
2021/09/07 08:05:57;;;;;;;11.02;7.25;;;;;;;22.38;41.31;99257.03;5118410;28;20043;-95
2021/09/07 08:08:23;;;;;;;11.68;7.50;;;;;;;22.39;40.18;99265.06;5119554;28;20078;-93
2021/09/07 08:10:49;;;;;;;13.13;7.50;;;;;;;22.64;40.35;99258.84;5120974;28;20066;-93
2021/09/07 08:13:17;;;;;;;9.10;6.88;;;;;;;22.64;40.20;99248.00;5120578;28;20031;-95
2021/09/07 08:15:45;;;;;;;12.38;8.02;;;;;;;22.67;39.64;99249.63;5118945;28;20043;-94
2021/09/07 08:18:15;;;;;;;13.00;8.40;;;;;;;22.82;40.60;99272.09;5123165;27;20044;-93
2021/09/07 08:20:42;;;;;;;12.27;7.75;;;;;;;23.15;39.42;99268.88;5119226;28;20135;-94
2021/09/07 08:23:08;;;;;;;11.88;7.72;;;;;;;22.94;40.04;99265.81;5120083;28;20039;-91
2021/09/07 08:25:34;;;;;;;15.77;8.07;;;;;;;23.17;40.05;99275.94;5119110;28;20096;-93
2021/09/07 08:28:03;;;;;;;11.65;7.80;;;;;;;23.36;39.69;99277.34;5119770;28;20093;-94
2021/09/07 08:30:29;;;;;;;12.02;7.50;;;;;;;23.46;39.15;99267.53;5121521;27;20035;-91
2021/09/07 08:32:56;;;;;;;12.02;7.95;;;;;;;23.32;39.08;99270.41;5124094;27;20043;-92
2021/09/07 08:35:23;;;;;;;14.07;6.82;;;;;;;23.48;37.91;99270.16;5119830;28;20039;-94
2021/09/07 08:37:49;;;;;;;10.25;7.10;;;;;;;23.64;38.66;99305.19;5120756;28;20570;-95
2021/09/07 08:40:15;;;;;;;12.75;8.38;;;;;;;23.31;38.77;99284.94;5121293;28;20051;-93
2021/09/07 08:42:47;;;;;;;11.73;8.00;;;;;;;23.41;38.37;99269.72;5121498;28;20059;-94
2021/09/07 08:45:13;;;;;;;;;;;;;;;24.01;37.06;99289.84;5118690;28;20051;-93
2021/09/07 08:47:41;;;;;;;13.05;7.35;;;;;;;23.62;37.73;99255.59;5119985;28;19916;-94
2021/09/07 08:50:07;;;;;;;12.82;7.60;;;;;;;23.63;37.24;99255.47;5118346;27;20074;-94
2021/09/07 08:52:37;;;;;;;14.48;8.50;;;;;;;23.96;37.42;99279.31;5116837;28;20527;-93
2021/09/07 08:55:05;;;;;;;12.07;7.80;;;;;;;24.03;36.93;99251.66;5117206;28;20043;-94
2021/09/07 08:57:31;;;;;;;10.95;7.15;;;;;;;24.14;37.16;99290.66;5115361;28;20036;-94
2021/09/07 09:00:01;;;;;;;14.02;7.90;;;;;;;24.14;36.85;99276.22;5115380;28;20390;-94
2021/09/07 09:02:27;;;;;;;13.52;8.05;;;;;;;24.23;36.91;99269.22;5117326;28;20052;-91
2021/09/07 09:04:55;;;;;;;12.70;8.02;;;;;;;24.39;36.24;99289.66;5116339;28;20055;-92
2021/09/07 09:07:22;;;;;;;11.45;8.35;;;;;;;24.20;36.45;99264.84;5115728;28;20048;-92
2021/09/07 09:09:51;;;;;;;10.88;7.68;;;;;;;24.33;35.57;99268.41;5115307;28;20119;-94
2021/09/07 09:12:22;;;;;;;11.75;8.02;;;;;;;24.59;35.45;99249.22;5119946;28;20044;-94
2021/09/07 09:14:48;;;;;;;14.95;8.35;;;;;;;24.75;35.76;99270.69;5117459;28;20455;-95
2021/09/07 09:17:31;;;;;;;17.88;8.73;;;;;;;24.36;35.79;99284.47;5115756;28;20047;-93
2021/09/07 09:19:59;;;;;;;13.32;7.75;;;;;;;24.84;36.29;99274.53;5116698;28;20068;-93
2021/09/07 09:22:47;;;;;;;11.70;8.30;;;;;;;25.00;35.87;99284.09;5119924;28;20074;-96
2021/09/07 09:25:27;;;;;;;13.48;8.02;;;;;;;25.51;35.33;99269.19;5118244;28;20409;-94
2021/09/07 09:28:08;;;;;;;11.38;7.85;;;;;;;25.75;31.85;99263.59;5115529;28;20389;-94
2021/09/07 09:30:38;;;;;;;11.20;8.30;;;;;;;25.81;31.75;99251.34;5112203;28;20107;-95
2021/09/07 09:33:07;;;;;;;10.88;8.05;;;;;;;25.93;30.75;99253.06;5116164;28;20039;-96
2021/09/07 09:35:44;;;;;;;11.85;8.57;;;;;;;25.48;32.13;99266.72;5119146;28;20047;-94
2021/09/07 09:38:10;;;;;;;11.63;8.40;;;;;;;25.53;32.08;99269.94;5116623;28;20488;-93
2021/09/07 09:40:38;;;;;;;10.18;8.10;;;;;;;25.52;32.09;99268.19;5116402;28;20047;-93
2021/09/07 09:43:26;;;;;;;12.00;8.47;;;;;;;26.07;30.18;99278.31;5117087;28;20043;-93
2021/09/07 09:45:53;;;;;;;11.00;8.30;;;;;;;26.09;30.45;99271.75;5117642;28;20043;-93
2021/09/07 09:48:25;;;;;;;11.27;8.57;;;;;;;25.69;30.66;99275.00;5118984;28;20489;-94
2021/09/07 09:50:56;;;;;;;14.27;8.63;;;;;;;25.59;31.04;99277.63;5115104;28;20040;-92
2021/09/07 09:53:23;;;;;;;11.63;8.38;;;;;;;25.48;30.76;99253.13;5116836;28;20036;-92
2021/09/07 09:55:53;;;;;;;10.48;7.97;;;;;;;25.74;30.15;99266.44;5116294;28;20577;-92
2021/09/07 09:58:21;;;;;;;10.02;8.25;;;;;;;25.90;30.45;99245.16;5114059;28;20101;-93
2021/09/07 10:00:47;;;;;;;10.80;7.68;;;;;;;25.81;30.24;99244.03;5113380;28;20059;-93
2021/09/07 10:03:14;;;;;;;12.85;7.78;;;;;;;25.81;30.39;99233.13;5114741;28;20066;-95
2021/09/07 10:05:41;;;;;;;11.30;8.18;;;;;;;26.12;29.65;99254.28;5114855;28;20063;-93
2021/09/07 10:08:10;;;;;;;12.98;8.20;;;;;;;25.80;29.99;99252.31;5113977;28;20051;-93
2021/09/07 10:10:42;;;;;;;12.25;7.93;;;;;;;26.27;30.00;99263.88;5115015;28;20067;-91
2021/09/07 10:13:16;;;;;;;12.50;8.77;;;;;;;25.95;30.26;99248.34;5112388;28;20047;-94
2021/09/07 10:15:50;;;;;;;12.98;8.18;;;;;;;26.40;29.49;99240.03;5110283;28;20401;-92
2021/09/07 10:24:49;;;;;;;11.00;8.52;;;;;;;26.63;29.09;99251.75;5094599;27;2020532;-93
2021/09/07 10:27:16;;;;;;;10.88;7.78;;;;;;;26.28;29.85;99245.66;5146578;27;20057;-95
2021/09/07 10:29:44;;;;;;;11.48;8.40;;;;;;;26.24;29.85;99236.91;5141166;27;20107;-94
2021/09/07 10:32:30;;;;;;;13.45;8.30;;;;;;;26.33;29.57;99227.94;5146292;27;20035;-95
2021/09/07 10:35:14;;;;;;;10.07;8.45;;;;;;;26.28;29.92;99235.59;5142356;27;20035;-94
2021/09/07 10:38:05;;;;;;;10.95;8.05;;;;;;;26.49;29.96;99232.94;5148118;27;20035;-93
2021/09/07 10:40:47;;;;;;;10.55;7.88;;;;;;;26.42;29.38;99227.13;5148001;27;20765;-94
2021/09/07 10:43:33;;;;;;;10.50;8.13;;;;;;;26.31;29.21;99220.88;5136787;27;20050;-92
2021/09/07 10:45:59;;;;;;;11.77;7.97;;;;;;;26.54;29.04;99217.00;5145516;27;20038;-96
2021/09/07 10:48:34;;;;;;;11.18;8.52;;;;;;;26.67;29.64;99222.31;5149361;27;20139;-95
2021/09/07 10:51:03;;;;;;;11.10;8.73;;;;;;;25.97;30.32;99208.22;5143283;27;20089;-94
2021/09/07 10:53:30;;;;;;;10.85;8.35;;;;;;;26.26;29.61;99210.34;5145308;27;20039;-94
2021/09/07 10:56:25;;;;;;;11.00;8.25;;;;;;;26.66;29.31;99209.69;5146505;27;20031;-94
2021/09/07 10:58:52;;;;;;;10.70;8.15;;;;;;;26.77;29.19;99201.44;5132275;27;20557;-95
2021/09/07 11:01:29;;;;;;;13.25;8.23;;;;;;;26.77;29.18;99176.88;5143007;27;20040;-95
2021/09/07 11:04:31;;;;;;;9.63;7.90;;;;;;;27.19;29.48;99203.22;5146208;27;20118;-94
2021/09/07 11:06:57;;;;;;;10.30;8.10;;;;;;;26.49;29.18;99200.19;5147728;27;20058;-95
2021/09/07 11:09:49;;;;;;;13.02;8.27;;;;;;;26.72;29.99;99191.91;5145314;27;20122;-93
2021/09/07 11:12:28;;;;;;;10.63;7.90;;;;;;;26.81;28.73;99156.50;5148646;27;20040;-93
2021/09/07 11:15:04;;;;;;;10.40;8.27;;;;;;;27.04;28.92;99176.31;5144505;27;20383;-93
2021/09/07 11:17:33;;;;;;;10.15;8.13;;;;;;;27.03;28.40;99173.72;5148946;27;20035;-94
2021/09/07 11:20:02;;;;;;;17.20;8.52;;;;;;;26.62;28.98;99161.84;5145316;27;20477;-93
2021/09/07 11:22:29;;;;;;;12.13;8.07;;;;;;;26.48;28.63;99173.03;5147173;27;20052;-95
2021/09/07 11:25:07;;;;;;;12.00;8.10;;;;;;;26.51;28.71;99167.34;5150907;27;20129;-92
2021/09/07 11:27:54;;;;;;;9.23;7.17;;;;;;;26.82;28.07;99176.47;5151036;27;20430;-95
2021/09/07 11:30:22;;;;;;;10.15;7.72;;;;;;;26.45;28.22;99174.19;5144431;27;20047;-95
2021/09/07 11:32:48;;;;;;;;;;;;;;;26.44;27.54;99167.88;5146172;27;20040;-94
2021/09/07 11:35:16;;;;;;;10.70;7.47;;;;;;;26.68;27.93;99155.84;5133492;27;19923;-95
2021/09/07 11:37:45;;;;;;;8.95;7.22;;;;;;;27.03;27.51;99162.78;5130804;27;20041;-94